»·PEaware :: SWA1535 KLAS-KSAN

SWA1535 :: KLAS-KSAN

FLIGHT INFORMATION

Flight Status: Arrived
Operator:
Southwest Airlines
More flights by this operator :: More flights under this callsign
Pilot: Cody B. (17747)
Aircraft: BOEING 737-800
(B738)
More flights by this aircraft type
Origin: KLAS McCarran Intl
United States
Destination: KSAN San Diego Intl-Lindbergh
United States
More flights between these airports :: More routes between these airports
Route: BOACH8 LVELL LUCKI1
File this flight plan on PilotEdge
Remarks: PBN / A1B1C1D1S1S2 DOF / 180810 REG / N8301J CODE / AB5ADE OPR / SWA PER / C RMK / TCAS SIMBRIEF
Altitude:
(Current/Filed)
28,000ft
Speed:
(Current/Filed)
464kts
Departed: 10-Aug-18 10:24 AM
Arrived: 10-Aug-18 11:11 AM
Distance/Time
Traveled:
225nm/0:46
Distance/Time
To Go:
Arrived

Flight Plot

Page will automatically refresh every two minutes.

Flight plan parsing failed; only flown route is shown


Map Options




Map Legend


Flown Route
Filed Route
Departure Airport
Arrival Airport
Navaid (VOR, NDB)
Fix

Horizontal Profiles

Position Reports

Time Latitude Longitude Heading Altitude Ground
Speed
10-Aug-18 09:21 36.079923 -115.147117 57 2149ft 0kts
10-Aug-18 09:22 36.079923 -115.147117 57 2149ft 0kts
10-Aug-18 09:23 36.079923 -115.147117 57 2149ft 0kts
10-Aug-18 09:24 36.079923 -115.147117 57 2149ft 0kts
10-Aug-18 09:25 36.079923 -115.147117 57 2149ft 0kts
10-Aug-18 09:26 36.079923 -115.147117 57 2149ft 0kts
10-Aug-18 09:27 36.079923 -115.147117 57 2149ft 0kts
10-Aug-18 09:28 36.079923 -115.147117 57 2149ft 0kts
10-Aug-18 09:29 36.079923 -115.147117 57 2149ft 0kts
10-Aug-18 09:30 36.079923 -115.147117 57 2149ft 0kts
10-Aug-18 09:31 36.079923 -115.147117 57 2149ft 0kts
10-Aug-18 09:32 36.079923 -115.147117 57 2149ft 0kts
10-Aug-18 09:33 36.079923 -115.147117 57 2149ft 0kts
10-Aug-18 09:34 36.079923 -115.147117 57 2149ft 0kts
10-Aug-18 09:35 36.079923 -115.147117 57 2149ft 0kts
10-Aug-18 09:36 36.079923 -115.147117 57 2149ft 0kts
10-Aug-18 09:37 36.079923 -115.147117 57 2149ft 0kts
10-Aug-18 09:38 36.079923 -115.147117 57 2149ft 0kts
10-Aug-18 09:39 36.079923 -115.147117 57 2149ft 0kts
10-Aug-18 09:40 36.079923 -115.147117 57 2149ft 0kts
10-Aug-18 09:41 36.079923 -115.147117 57 2149ft 0kts
10-Aug-18 09:42 36.079923 -115.147117 57 2149ft 0kts
10-Aug-18 09:43 36.079923 -115.147117 57 2149ft 0kts
10-Aug-18 09:44 36.079923 -115.147117 57 2149ft 0kts
10-Aug-18 09:45 36.079923 -115.147117 57 2149ft 0kts
10-Aug-18 09:46 36.079923 -115.147117 57 2149ft 0kts
10-Aug-18 09:47 36.079923 -115.147117 57 2149ft 0kts
10-Aug-18 09:48 36.079923 -115.147117 57 2149ft 0kts
10-Aug-18 09:49 36.079923 -115.147117 57 2149ft 0kts
10-Aug-18 09:50 36.079923 -115.147117 57 2149ft 0kts
10-Aug-18 09:51 36.079923 -115.147117 57 2149ft 0kts
10-Aug-18 09:52 36.079923 -115.147117 57 2149ft 0kts
10-Aug-18 09:53 36.079923 -115.147117 57 2149ft 0kts
10-Aug-18 09:54 36.079923 -115.147117 57 2149ft 0kts
10-Aug-18 09:55 36.079923 -115.147117 57 2149ft 0kts
10-Aug-18 09:56 36.079923 -115.147117 57 2149ft 0kts
10-Aug-18 09:57 36.079923 -115.147117 57 2149ft 0kts
10-Aug-18 09:58 36.079923 -115.147117 57 2149ft 0kts
10-Aug-18 09:59 36.079923 -115.147117 57 2149ft 0kts
10-Aug-18 10:00 36.079923 -115.147117 57 2149ft 0kts
10-Aug-18 10:01 36.079923 -115.147117 57 2149ft 0kts
10-Aug-18 10:02 36.079923 -115.147117 57 2149ft 0kts
10-Aug-18 10:03 36.079923 -115.147117 57 2149ft 0kts
10-Aug-18 10:04 36.079923 -115.147117 57 2149ft 0kts
10-Aug-18 10:05 36.079923 -115.147117 57 2149ft 0kts
10-Aug-18 10:06 36.079923 -115.147118 57 2149ft 0kts
10-Aug-18 10:07 36.079741 -115.147519 93 2149ft 2kts
10-Aug-18 10:08 36.079992 -115.147924 156 2149ft 0kts
10-Aug-18 10:09 36.079992 -115.147923 156 2149ft 0kts
10-Aug-18 10:10 36.079992 -115.147923 156 2149ft 0kts
10-Aug-18 10:11 36.079733 -115.147780 155 2149ft 3kts
10-Aug-18 10:12 36.079201 -115.147467 154 2149ft 0kts
10-Aug-18 10:13 36.079065 -115.147385 154 2149ft 2kts
10-Aug-18 10:14 36.078409 -115.145458 94 2149ft 10kts
10-Aug-18 10:15 36.078250 -115.140570 89 2149ft 16kts
10-Aug-18 10:16 36.078251 -115.135170 90 2149ft 15kts
10-Aug-18 10:17 36.077541 -115.132392 100 2149ft 5kts
10-Aug-18 10:18 36.077526 -115.129747 89 2149ft 10kts
10-Aug-18 10:19 36.077518 -115.125225 89 2149ft 15kts
10-Aug-18 10:20 36.077364 -115.121416 162 2149ft 0kts
10-Aug-18 10:21 36.077364 -115.121416 162 2149ft 0kts
10-Aug-18 10:22 36.077364 -115.121416 162 2149ft 0kts
10-Aug-18 10:23 36.077211 -115.121364 167 2149ft 3kts
10-Aug-18 10:24 36.076379 -115.123534 270 2149ft 18kts
10-Aug-18 10:25 36.076166 -115.159056 269 2454ft 173kts
10-Aug-18 10:26 36.075741 -115.222182 270 4419ft 204kts
10-Aug-18 10:27 36.031447 -115.276425 195 5828ft 281kts
10-Aug-18 10:28 35.956034 -115.305467 188 7321ft 287kts
10-Aug-18 10:29 35.875590 -115.313877 184 9963ft 301kts
10-Aug-18 10:30 35.786739 -115.309263 172 11954ft 334kts
10-Aug-18 10:31 35.692771 -115.297557 171 14514ft 346kts
10-Aug-18 10:32 35.595777 -115.298109 179 17177ft 355kts
10-Aug-18 10:33 35.496506 -115.302008 179 19554ft 364kts
10-Aug-18 10:34 35.394350 -115.306003 179 21696ft 373kts
10-Aug-18 10:35 35.290319 -115.310064 179 22734ft 379kts
10-Aug-18 10:36 35.202279 -115.313603 179 23436ft 385kts
10-Aug-18 10:37 35.076778 -115.318597 179 24442ft 390kts
10-Aug-18 10:38 34.968010 -115.322787 180 25212ft 394kts
10-Aug-18 10:39 34.877963 -115.326166 180 26031ft 391kts
10-Aug-18 10:40 34.753919 -115.341473 197 27206ft 387kts
10-Aug-18 10:41 34.670011 -115.378332 199 27745ft 390kts
10-Aug-18 10:42 34.550218 -115.431069 199 28027ft 401kts
10-Aug-18 10:43 34.460871 -115.470176 199 28142ft 419kts
10-Aug-18 10:44 34.348840 -115.519039 199 28151ft 440kts
10-Aug-18 10:45 34.240606 -115.590503 211 28140ft 448kts
10-Aug-18 10:46 34.129689 -115.653881 201 28149ft 449kts
10-Aug-18 10:47 34.023763 -115.703635 201 28145ft 450kts
10-Aug-18 10:48 33.907715 -115.758229 201 28074ft 436kts
10-Aug-18 10:49 33.801289 -115.810185 201 27608ft 428kts
10-Aug-18 10:50 33.692094 -115.862047 201 26615ft 423kts
10-Aug-18 10:51 33.583509 -115.912764 201 25611ft 416kts
10-Aug-18 10:52 33.490004 -115.986985 232 24622ft 408kts
10-Aug-18 10:53 33.425359 -116.097485 235 23224ft 402kts
10-Aug-18 10:54 33.362628 -116.205766 234 21236ft 393kts
10-Aug-18 10:55 33.280187 -116.284767 204 18368ft 375kts
10-Aug-18 10:56 33.189640 -116.337634 203 16489ft 362kts
10-Aug-18 10:57 33.099960 -116.389845 203 14722ft 355kts
10-Aug-18 10:58 33.017474 -116.437920 203 13146ft 307kts
10-Aug-18 10:59 32.949151 -116.499916 219 11695ft 310kts
10-Aug-18 11:00 32.885240 -116.564631 219 10252ft 300kts
10-Aug-18 11:01 32.823052 -116.627445 219 8996ft 286kts
10-Aug-18 11:02 32.768082 -116.686030 235 7884ft 277kts
10-Aug-18 11:03 32.732224 -116.762729 238 6791ft 255kts
10-Aug-18 11:04 32.701516 -116.830989 246 5788ft 212kts
10-Aug-18 11:05 32.683383 -116.891782 247 4873ft 185kts
10-Aug-18 11:06 32.675707 -116.949372 281 4011ft 186kts
10-Aug-18 11:07 32.689165 -117.007022 282 3090ft 178kts
10-Aug-18 11:08 32.702002 -117.059795 282 2153ft 155kts
10-Aug-18 11:09 32.713485 -117.107452 281 1853ft 159kts
10-Aug-18 11:10 32.725104 -117.154036 283 687ft 144kts
10-Aug-18 11:11 32.734847 -117.195204 286 25ft 41kts
10-Aug-18 11:12 32.734868 -117.198329 179 25ft 0kts
10-Aug-18 11:13 32.734859 -117.198328 177 25ft 0kts
10-Aug-18 11:14 32.734480 -117.197734 108 25ft 8kts
10-Aug-18 11:15 32.733608 -117.194489 132 25ft 8kts
10-Aug-18 11:16 32.732326 -117.194787 211 25ft 2kts
10-Aug-18 11:17 32.732128 -117.195527 292 25ft 5kts
10-Aug-18 11:18 32.732329 -117.195909 306 25ft 0kts
10-Aug-18 11:19 32.732329 -117.195909 306 25ft 0kts
10-Aug-18 11:20 32.732329 -117.195909 306 25ft 0kts
10-Aug-18 11:21 32.732329 -117.195909 306 25ft 0kts
10-Aug-18 11:22 32.732329 -117.195909 306 25ft 0kts
10-Aug-18 11:23 32.732329 -117.195909 306 25ft 0kts
10-Aug-18 11:24 32.732329 -117.195909 306 25ft 0kts
10-Aug-18 11:25 32.732329 -117.195909 306 25ft 0kts
10-Aug-18 11:26 32.732329 -117.195909 306 25ft 0kts

Navigation Log

Ident Type
Flight plan parsing failed, navigation log unavailable